»·PEaware :: UAL241 KRNO-KSFO

UAL241 :: KRNO-KSFO

FLIGHT INFORMATION

Flight Status: Arrived
Operator:
United Airlines
More flights by this operator :: More flights under this callsign
Pilot: Ryan H. (12491)
Aircraft: BOEING 737-800
(B738)
More flights by this aircraft type
Origin: KRNO Reno/Tahoe Intl
United States
Destination: KSFO San Francisco Intl
United States
More flights between these airports :: More routes between these airports
Route: +PVINE3 CRDDZ LEGGS BDEGA2
File this flight plan on PilotEdge
Remarks:
Altitude:
(Current/Filed)
300ft
Speed:
(Current/Filed)
450kts
Departed: 01-May-18 09:23 PM
Arrived: 01-May-18 10:12 PM
Distance/Time
Traveled:
167nm/0:49
Distance/Time
To Go:
Arrived

Flight Plot

Page will automatically refresh every two minutes.


Map Options




Map Legend


Flown Route
Filed Route
Departure Airport
Arrival Airport
Navaid (VOR, NDB)
Fix

Horizontal Profiles

Position Reports

Time Latitude Longitude Heading Altitude Ground
Speed
01-May-18 21:00 39.505929 -119.773989 190 4424ft 0kts
01-May-18 21:01 39.505929 -119.773989 190 4424ft 0kts
01-May-18 21:02 39.505929 -119.773989 190 4424ft 0kts
01-May-18 21:03 39.505929 -119.773989 190 4424ft 0kts
01-May-18 21:04 39.505929 -119.773989 190 4424ft 0kts
01-May-18 21:05 39.505929 -119.773989 190 4424ft 0kts
01-May-18 21:06 39.505929 -119.773989 190 4424ft 0kts
01-May-18 21:07 39.505929 -119.773989 190 4424ft 0kts
01-May-18 21:08 39.505929 -119.773989 190 4424ft 0kts
01-May-18 21:09 39.505929 -119.773989 190 4424ft 0kts
01-May-18 21:10 39.505929 -119.773989 190 4424ft 0kts
01-May-18 21:11 39.505929 -119.773989 190 4424ft 0kts
01-May-18 21:12 39.505929 -119.773989 190 4424ft 0kts
01-May-18 21:13 39.505929 -119.773989 190 4424ft 0kts
01-May-18 21:15 39.505929 -119.773989 190 4424ft 0kts
01-May-18 21:16 39.505929 -119.773989 190 4424ft 0kts
01-May-18 21:17 39.505929 -119.773989 190 4424ft 0kts
01-May-18 21:18 39.505957 -119.773982 190 4424ft 2kts
01-May-18 21:19 39.506249 -119.773823 207 4424ft 3kts
01-May-18 21:20 39.506503 -119.773352 108 4424ft 6kts
01-May-18 21:21 39.506452 -119.772175 89 4424ft 9kts
01-May-18 21:22 39.501013 -119.771607 178 4424ft 33kts
01-May-18 21:23 39.490543 -119.771630 179 4424ft 42kts
01-May-18 21:24 39.483797 -119.770651 88 4424ft 12kts
01-May-18 21:25 39.483802 -119.770184 89 4424ft 0kts
01-May-18 21:26 39.483824 -119.769511 67 4424ft 6kts
01-May-18 21:27 39.501240 -119.769413 359 4614ft 162kts
01-May-18 21:28 39.552026 -119.767720 1 7468ft 209kts
01-May-18 21:29 39.610441 -119.798115 301 9949ft 281kts
01-May-18 21:30 39.650094 -119.898118 295 12726ft 341kts
01-May-18 21:31 39.648546 -120.029298 251 15235ft 400kts
01-May-18 21:32 39.608343 -120.166938 250 18455ft 415kts
01-May-18 21:33 39.567044 -120.310359 251 20943ft 435kts
01-May-18 21:34 39.523882 -120.458726 251 23204ft 448kts
01-May-18 21:35 39.478763 -120.613394 253 24898ft 469kts
01-May-18 21:36 39.431550 -120.774468 254 26334ft 489kts
01-May-18 21:37 39.408581 -120.925889 339 27254ft 373kts
01-May-18 21:38 39.383112 -121.061460 236 30062ft 454kts
01-May-18 21:39 39.289479 -121.186963 231 29670ft 479kts
01-May-18 21:40 39.194151 -121.299798 226 29786ft 481kts
01-May-18 21:41 39.096703 -121.421207 236 29455ft 499kts
01-May-18 21:42 39.026397 -121.577776 235 29079ft 526kts
01-May-18 21:43 38.928590 -121.712509 238 27857ft 486kts
01-May-18 21:44 38.859780 -121.819521 234 27841ft 521kts
01-May-18 21:45 38.763735 -121.962727 237 27851ft 530kts
01-May-18 21:46 38.667068 -122.107741 236 27871ft 531kts
01-May-18 21:47 38.572301 -122.250051 235 25710ft 517kts
01-May-18 21:48 38.482733 -122.384254 235 24029ft 466kts
01-May-18 21:49 38.403335 -122.503204 235 22912ft 431kts
01-May-18 21:50 38.326386 -122.616305 235 21324ft 415kts
01-May-18 21:51 38.250583 -122.723477 219 19733ft 408kts
01-May-18 21:52 38.142514 -122.745235 164 18209ft 399kts
01-May-18 21:53 38.036562 -122.713034 165 16766ft 385kts
01-May-18 21:54 37.933833 -122.683322 166 15385ft 373kts
01-May-18 21:54 37.860765 -122.633454 136 14221ft 358kts
01-May-18 21:56 37.777152 -122.543661 137 13147ft 317kts
01-May-18 21:57 37.711212 -122.473906 137 11134ft 302kts
01-May-18 21:58 37.650813 -122.409666 138 10043ft 273kts
01-May-18 21:58 37.602531 -122.359018 147 8842ft 269kts
01-May-18 21:59 37.535630 -122.318105 154 7494ft 263kts
01-May-18 22:00 37.470778 -122.279401 154 6228ft 258kts
01-May-18 22:01 37.419025 -122.233383 116 6038ft 225kts
01-May-18 22:02 37.391747 -122.162408 114 6007ft 224kts
01-May-18 22:03 37.398002 -122.096703 27 6012ft 212kts
01-May-18 22:04 37.451963 -122.072279 337 4622ft 206kts
01-May-18 22:05 37.499382 -122.110525 315 4007ft 201kts
01-May-18 22:06 37.531412 -122.167788 297 3331ft 198kts
01-May-18 22:07 37.556687 -122.227232 295 2300ft 177kts
01-May-18 22:08 37.577420 -122.276537 295 1475ft 129kts
01-May-18 22:09 37.594004 -122.316169 294 817ft 131kts
01-May-18 22:10 37.611378 -122.357468 293 95ft 124kts
01-May-18 22:11 37.619573 -122.379413 233 22ft 19kts
01-May-18 22:12 37.618293 -122.380785 234 22ft 0kts

Navigation Log

Ident Type
1. KRNO Airport
2. PVINE Fix
3. CRDDZ Fix
4. KSFO Airport